createdAt,value
2022-11-08T00:00:55.943Z,1004.74
2022-11-08T00:01:56.029Z,1004.76
2022-11-08T00:02:56.013Z,1004.74
2022-11-08T00:03:55.897Z,1004.75
2022-11-08T00:04:55.925Z,1004.77
2022-11-08T00:05:55.876Z,1004.76
2022-11-08T00:06:55.877Z,1004.75
2022-11-08T00:07:55.861Z,1004.76
2022-11-08T00:08:56.011Z,1004.74
2022-11-08T00:09:55.830Z,1004.74
2022-11-08T00:10:55.838Z,1004.72
2022-11-08T00:11:55.808Z,1004.69
2022-11-08T00:12:55.813Z,1004.69
2022-11-08T00:13:55.817Z,1004.69
2022-11-08T00:14:55.790Z,1004.70
2022-11-08T00:15:55.772Z,1004.71
2022-11-08T00:16:55.779Z,1004.72
2022-11-08T00:17:55.757Z,1004.75
2022-11-08T00:18:55.754Z,1004.72
2022-11-08T00:19:55.761Z,1004.75
2022-11-08T00:20:55.728Z,1004.74
2022-11-08T00:21:55.711Z,1004.74
2022-11-08T00:22:55.724Z,1004.74
2022-11-08T00:23:55.683Z,1004.78
2022-11-08T00:24:55.723Z,1004.77
2022-11-08T00:25:55.664Z,1004.78
2022-11-08T00:26:55.667Z,1004.75
2022-11-08T00:27:55.636Z,1004.77
2022-11-08T00:28:55.650Z,1004.76
2022-11-08T00:29:55.615Z,1004.77
2022-11-08T00:30:55.658Z,1004.78
2022-11-08T00:31:55.616Z,1004.78
2022-11-08T00:32:55.596Z,1004.76
2022-11-08T00:33:55.582Z,1004.75
2022-11-08T00:34:55.588Z,1004.73
2022-11-08T00:35:55.596Z,1004.71
2022-11-08T00:36:55.554Z,1004.71
2022-11-08T00:37:55.530Z,1004.69
2022-11-08T00:38:55.539Z,1004.69
2022-11-08T00:39:55.510Z,1004.68
2022-11-08T00:40:55.512Z,1004.71
2022-11-08T00:41:55.512Z,1004.70
2022-11-08T00:42:55.489Z,1004.71
2022-11-08T00:43:55.466Z,1004.71
2022-11-08T00:44:55.471Z,1004.68
2022-11-08T00:45:55.460Z,1004.69
2022-11-08T00:46:55.485Z,1004.65
2022-11-08T00:47:55.424Z,1004.65
2022-11-08T00:48:55.425Z,1004.63
2022-11-08T00:49:55.402Z,1004.61
2022-11-08T00:50:55.408Z,1004.60
2022-11-08T00:51:55.407Z,1004.61
2022-11-08T00:52:55.414Z,1004.62
2022-11-08T00:53:55.363Z,1004.62
2022-11-08T00:54:55.377Z,1004.58
2022-11-08T00:55:55.338Z,1004.59
2022-11-08T00:56:55.385Z,1004.58
2022-11-08T00:58:00.091Z,1004.60
2022-11-08T00:58:55.359Z,1004.57
2022-11-08T00:59:55.299Z,1004.58
2022-11-08T01:00:55.325Z,1004.56
2022-11-08T01:01:55.402Z,1004.51
2022-11-08T01:02:55.281Z,1004.56
2022-11-08T01:03:55.274Z,1004.54
2022-11-08T01:04:55.254Z,1004.53
2022-11-08T01:05:55.237Z,1004.52
2022-11-08T01:06:55.238Z,1004.53
2022-11-08T01:07:55.224Z,1004.52
2022-11-08T01:08:55.287Z,1004.54
2022-11-08T01:09:55.520Z,1004.52
2022-11-08T01:10:55.467Z,1004.53
2022-11-08T01:11:55.177Z,1004.53
2022-11-08T01:12:55.187Z,1004.54
2022-11-08T01:13:56.148Z,1004.54
2022-11-08T01:14:55.174Z,1004.53
2022-11-08T01:15:55.208Z,1004.53
2022-11-08T01:16:55.158Z,1004.55
2022-11-08T01:17:55.103Z,1004.55
2022-11-08T01:18:55.105Z,1004.52
2022-11-08T01:19:55.112Z,1004.51
2022-11-08T01:20:55.083Z,1004.50
2022-11-08T01:21:55.090Z,1004.50
2022-11-08T01:22:55.065Z,1004.45
2022-11-08T01:23:55.048Z,1004.44
2022-11-08T01:24:55.036Z,1004.40
2022-11-08T01:25:55.013Z,1004.41
2022-11-08T01:26:55.029Z,1004.42
2022-11-08T01:27:55.027Z,1004.43
2022-11-08T01:28:55.004Z,1004.41
2022-11-08T01:29:54.976Z,1004.40
2022-11-08T01:30:54.974Z,1004.43
2022-11-08T01:31:54.956Z,1004.45
2022-11-08T01:32:54.970Z,1004.46
2022-11-08T01:33:54.961Z,1004.47
2022-11-08T01:34:54.929Z,1004.47
2022-11-08T01:35:54.911Z,1004.50
2022-11-08T01:36:54.906Z,1004.44
2022-11-08T01:37:54.883Z,1004.45
2022-11-08T01:38:54.905Z,1004.45
2022-11-08T01:39:54.969Z,1004.40
2022-11-08T01:40:54.863Z,1004.41
2022-11-08T01:41:54.858Z,1004.44
2022-11-08T01:42:54.853Z,1004.43
2022-11-08T01:43:54.820Z,1004.43
2022-11-08T01:44:54.822Z,1004.38
2022-11-08T01:45:54.867Z,1004.38
2022-11-08T01:46:54.802Z,1004.36
2022-11-08T01:47:54.777Z,1004.35
2022-11-08T01:48:54.844Z,1004.34
2022-11-08T01:49:54.761Z,1004.30
2022-11-08T01:50:54.781Z,1004.27
2022-11-08T01:51:54.880Z,1004.28
2022-11-08T01:52:54.772Z,1004.27
2022-11-08T01:53:54.713Z,1004.30
2022-11-08T01:54:54.716Z,1004.27
2022-11-08T01:55:54.691Z,1004.30
2022-11-08T01:56:54.696Z,1004.26
2022-11-08T01:57:54.693Z,1004.24
2022-11-08T01:58:54.675Z,1004.22
2022-11-08T01:59:54.662Z,1004.23
2022-11-08T02:00:54.737Z,1004.19
2022-11-08T02:01:54.869Z,1004.21
2022-11-08T02:02:54.618Z,1004.25
2022-11-08T02:03:54.645Z,1004.27
2022-11-08T02:04:54.608Z,1004.26
2022-11-08T02:05:54.597Z,1004.29
2022-11-08T02:06:54.583Z,1004.27
2022-11-08T02:07:54.577Z,1004.26
2022-11-08T02:08:54.552Z,1004.27
2022-11-08T02:09:54.599Z,1004.26
2022-11-08T02:10:54.540Z,1004.27
2022-11-08T02:11:54.535Z,1004.27
2022-11-08T02:12:54.505Z,1004.28
2022-11-08T02:13:54.522Z,1004.29
2022-11-08T02:14:54.485Z,1004.28
2022-11-08T02:15:54.518Z,1004.29
2022-11-08T02:16:54.466Z,1004.28
2022-11-08T02:17:54.469Z,1004.29
2022-11-08T02:18:54.443Z,1004.28
2022-11-08T02:19:54.451Z,1004.26
2022-11-08T02:20:54.423Z,1004.29
2022-11-08T02:21:54.450Z,1004.27
2022-11-08T02:22:54.405Z,1004.25
2022-11-08T02:23:54.405Z,1004.23
2022-11-08T02:24:54.381Z,1004.24
2022-11-08T02:25:54.400Z,1004.26
2022-11-08T02:26:54.357Z,1004.26
2022-11-08T02:27:54.406Z,1004.25
2022-11-08T02:28:54.339Z,1004.26
2022-11-08T02:29:54.336Z,1004.25
2022-11-08T02:30:54.324Z,1004.28
2022-11-08T02:31:54.338Z,1004.26
2022-11-08T02:32:54.296Z,1004.30
2022-11-08T02:33:54.327Z,1004.25
2022-11-08T02:34:54.271Z,1004.25
2022-11-08T02:35:54.292Z,1004.24
2022-11-08T02:36:54.271Z,1004.24
2022-11-08T02:37:54.252Z,1004.26
2022-11-08T02:38:54.238Z,1004.20
2022-11-08T02:39:54.266Z,1004.21
2022-11-08T02:40:54.208Z,1004.24
2022-11-08T02:41:54.239Z,1004.22
2022-11-08T02:42:54.182Z,1004.21
2022-11-08T02:43:54.185Z,1004.20
2022-11-08T02:44:54.169Z,1004.20
2022-11-08T02:45:54.191Z,1004.17
2022-11-08T02:46:54.140Z,1004.16
2022-11-08T02:47:54.152Z,1004.13
2022-11-08T02:48:54.141Z,1004.15
2022-11-08T02:49:54.121Z,1004.18
2022-11-08T02:50:54.102Z,1004.13
2022-11-08T02:51:54.135Z,1004.13
2022-11-08T02:52:54.085Z,1004.09
2022-11-08T02:53:54.089Z,1004.09
2022-11-08T02:54:54.061Z,1004.09
2022-11-08T02:55:54.059Z,1004.03
2022-11-08T02:56:54.034Z,1003.99
2022-11-08T02:57:54.069Z,1004.03
2022-11-08T02:58:54.013Z,1003.99
2022-11-08T02:59:54.016Z,1003.95
2022-11-08T03:00:54.053Z,1003.96
2022-11-08T03:01:54.187Z,1003.95
2022-11-08T03:02:53.970Z,1003.94
2022-11-08T03:03:54.002Z,1003.92
2022-11-08T03:04:53.949Z,1003.89
2022-11-08T03:05:53.949Z,1003.93
2022-11-08T03:06:53.941Z,1003.89
2022-11-08T03:07:53.938Z,1003.88
2022-11-08T03:08:53.905Z,1003.91
2022-11-08T03:09:53.933Z,1003.87
2022-11-08T03:10:53.882Z,1003.85
2022-11-08T03:11:53.884Z,1003.85
2022-11-08T03:12:53.871Z,1003.81
2022-11-08T03:13:53.861Z,1003.80
2022-11-08T03:14:53.840Z,1003.77
2022-11-08T03:15:53.901Z,1003.74
2022-11-08T03:16:53.822Z,1003.79
2022-11-08T03:17:53.819Z,1003.77
2022-11-08T03:18:53.802Z,1003.81
2022-11-08T03:19:53.813Z,1003.75
2022-11-08T03:20:53.775Z,1003.77
2022-11-08T03:21:53.819Z,1003.73
2022-11-08T03:22:53.787Z,1003.71
2022-11-08T03:23:53.754Z,1003.73
2022-11-08T03:24:53.732Z,1003.72
2022-11-08T03:25:53.735Z,1003.68
2022-11-08T03:26:53.715Z,1003.66
2022-11-08T03:27:53.751Z,1003.66
2022-11-08T03:28:53.692Z,1003.67
2022-11-08T03:29:53.696Z,1003.65
2022-11-08T03:30:53.665Z,1003.61
2022-11-08T03:31:53.675Z,1003.66
2022-11-08T03:32:53.656Z,1003.59
2022-11-08T03:33:53.685Z,1003.55
2022-11-08T03:34:53.626Z,1003.58
2022-11-08T03:35:53.636Z,1003.55
2022-11-08T03:36:53.603Z,1003.51
2022-11-08T03:37:53.606Z,1003.48
2022-11-08T03:38:53.593Z,1003.45
2022-11-08T03:39:53.620Z,1003.44
2022-11-08T03:40:53.560Z,1003.42
2022-11-08T03:41:53.569Z,1003.42
2022-11-08T03:42:53.542Z,1003.39
2022-11-08T03:43:53.539Z,1003.40
2022-11-08T03:44:53.519Z,1003.37
2022-11-08T03:45:53.570Z,1003.37
2022-11-08T03:46:53.501Z,1003.38
2022-11-08T03:47:53.499Z,1003.40
2022-11-08T03:48:53.477Z,1003.42
2022-11-08T03:49:53.483Z,1003.40
2022-11-08T03:50:53.456Z,1003.37
2022-11-08T03:51:53.489Z,1003.34
2022-11-08T03:52:53.442Z,1003.34
2022-11-08T03:53:53.434Z,1003.33
2022-11-08T03:54:53.416Z,1003.38
2022-11-08T03:55:53.413Z,1003.40
2022-11-08T03:56:53.386Z,1003.39
2022-11-08T03:57:53.438Z,1003.37
2022-11-08T03:58:53.386Z,1003.34
2022-11-08T03:59:53.377Z,1003.36
2022-11-08T04:00:53.350Z,1003.36
2022-11-08T04:01:53.532Z,1003.37
2022-11-08T04:02:53.321Z,1003.37
2022-11-08T04:03:53.348Z,1003.39
2022-11-08T04:04:53.300Z,1003.34
2022-11-08T04:05:53.303Z,1003.31
2022-11-08T04:06:53.279Z,1003.30
2022-11-08T04:07:53.286Z,1003.31
2022-11-08T04:08:53.259Z,1003.29
2022-11-08T04:09:53.284Z,1003.28
2022-11-08T04:10:53.245Z,1003.28
2022-11-08T04:11:53.239Z,1003.29
2022-11-08T04:12:53.214Z,1003.29
2022-11-08T04:13:53.220Z,1003.27
2022-11-08T04:14:53.198Z,1003.26
2022-11-08T04:15:53.278Z,1003.26
2022-11-08T04:16:53.253Z,1003.25
2022-11-08T04:17:53.179Z,1003.20
2022-11-08T04:18:53.151Z,1003.19
2022-11-08T04:19:53.154Z,1003.20
2022-11-08T04:20:53.138Z,1003.20
2022-11-08T04:21:53.188Z,1003.17
2022-11-08T04:22:53.120Z,1003.20
2022-11-08T04:23:53.124Z,1003.19
2022-11-08T04:24:53.085Z,1003.17
2022-11-08T04:25:53.092Z,1003.14
2022-11-08T04:26:53.063Z,1003.15
2022-11-08T04:27:53.112Z,1003.16
2022-11-08T04:28:53.051Z,1003.16
2022-11-08T04:29:53.044Z,1003.14
2022-11-08T04:30:53.028Z,1003.16
2022-11-08T04:31:53.025Z,1003.15
2022-11-08T04:32:52.998Z,1003.14
2022-11-08T04:33:53.040Z,1003.12
2022-11-08T04:34:52.980Z,1003.12
2022-11-08T04:35:52.983Z,1003.12
2022-11-08T04:36:52.982Z,1003.17
2022-11-08T04:37:52.958Z,1003.17
2022-11-08T04:38:52.935Z,1003.14
2022-11-08T04:39:52.965Z,1003.13
2022-11-08T04:40:52.913Z,1003.14
2022-11-08T04:41:56.430Z,1003.14
2022-11-08T04:42:52.916Z,1003.13
2022-11-08T04:43:52.897Z,1003.13
2022-11-08T04:44:52.872Z,1003.11
2022-11-08T04:45:52.920Z,1003.11
2022-11-08T04:46:52.869Z,1003.13
2022-11-08T04:47:52.858Z,1003.12
2022-11-08T04:48:52.827Z,1003.11
2022-11-08T04:49:52.845Z,1003.11
2022-11-08T04:50:52.809Z,1003.10
2022-11-08T04:51:52.874Z,1003.10
2022-11-08T04:52:52.789Z,1003.08
2022-11-08T04:53:52.805Z,1003.08
2022-11-08T04:54:52.761Z,1003.07
2022-11-08T04:55:52.771Z,1003.08
2022-11-08T04:56:52.747Z,1003.06
2022-11-08T04:57:52.813Z,1003.04
2022-11-08T04:58:52.724Z,1003.01
2022-11-08T04:59:52.732Z,1002.99
2022-11-08T05:00:52.700Z,1002.96
2022-11-08T05:01:52.886Z,1002.93
2022-11-08T05:02:52.804Z,1002.92
2022-11-08T05:03:52.734Z,1002.94
2022-11-08T05:04:52.659Z,1002.95
2022-11-08T05:05:52.676Z,1002.95
2022-11-08T05:06:52.647Z,1002.96
2022-11-08T05:07:52.643Z,1002.99
2022-11-08T05:08:52.639Z,1003.00
2022-11-08T05:09:53.736Z,1002.98
2022-11-08T05:10:52.622Z,1002.97
2022-11-08T05:11:52.630Z,1002.97
2022-11-08T05:12:52.578Z,1002.96
2022-11-08T05:13:52.593Z,1002.95
2022-11-08T05:14:52.551Z,1002.94
2022-11-08T05:15:52.592Z,1002.94
2022-11-08T05:16:52.539Z,1002.93
2022-11-08T05:17:52.553Z,1002.91
2022-11-08T05:18:52.514Z,1002.90
2022-11-08T05:19:52.539Z,1002.89
2022-11-08T05:20:52.497Z,1002.87
2022-11-08T05:21:52.490Z,1002.85
2022-11-08T05:22:52.469Z,1002.84
2022-11-08T05:23:52.473Z,1002.83
2022-11-08T05:24:52.454Z,1002.84
2022-11-08T05:25:52.674Z,1002.84
2022-11-08T05:26:52.444Z,1002.84
2022-11-08T05:27:52.437Z,1002.83
2022-11-08T05:28:52.410Z,1002.81
2022-11-08T05:29:52.421Z,1002.79
2022-11-08T05:30:52.419Z,1002.79
2022-11-08T05:31:52.383Z,1002.80
2022-11-08T05:32:52.361Z,1002.81
2022-11-08T05:33:52.370Z,1002.83
2022-11-08T05:34:52.358Z,1002.84
2022-11-08T05:35:52.365Z,1002.84
2022-11-08T05:36:52.372Z,1002.85
2022-11-08T05:37:52.334Z,1002.85
2022-11-08T05:38:52.300Z,1002.82
2022-11-08T05:39:52.302Z,1002.81
2022-11-08T05:40:52.289Z,1002.78
2022-11-08T05:41:52.297Z,1002.76
2022-11-08T05:42:52.256Z,1002.74
2022-11-08T05:43:52.259Z,1002.71
2022-11-08T05:44:52.258Z,1002.71
2022-11-08T05:45:52.237Z,1002.72
2022-11-08T05:46:52.221Z,1002.70
2022-11-08T05:47:52.238Z,1002.69
2022-11-08T05:48:52.225Z,1002.69
2022-11-08T05:49:52.193Z,1002.67
2022-11-08T05:50:52.179Z,1002.65
2022-11-08T05:51:52.180Z,1002.62
2022-11-08T05:52:52.185Z,1002.57
2022-11-08T05:53:52.150Z,1002.55
2022-11-08T05:54:52.147Z,1002.55
2022-11-08T05:55:52.134Z,1002.55
2022-11-08T05:56:52.110Z,1002.51
2022-11-08T05:57:52.117Z,1002.52
2022-11-08T05:58:52.115Z,1002.50
2022-11-08T05:59:52.091Z,1002.46
2022-11-08T06:00:52.126Z,1002.47
2022-11-08T06:01:52.153Z,1002.43
2022-11-08T06:02:52.132Z,1002.42
2022-11-08T06:03:52.064Z,1002.38
2022-11-08T06:04:52.024Z,1002.34
2022-11-08T06:05:52.026Z,1002.34
2022-11-08T06:06:52.008Z,1002.36
2022-11-08T06:07:52.001Z,1002.33
2022-11-08T06:08:53.071Z,1002.36
2022-11-08T06:09:51.983Z,1002.34
2022-11-08T06:10:51.957Z,1002.31
2022-11-08T06:11:51.966Z,1002.35
2022-11-08T06:12:51.939Z,1002.36
2022-11-08T06:13:51.942Z,1002.33
2022-11-08T06:14:51.952Z,1002.33
2022-11-08T06:15:51.936Z,1002.34
2022-11-08T06:16:51.907Z,1002.34
2022-11-08T06:17:51.906Z,1002.33
2022-11-08T06:18:51.888Z,1002.33
2022-11-08T06:19:51.878Z,1002.33
2022-11-08T06:20:51.881Z,1002.30
2022-11-08T06:21:51.842Z,1002.31
2022-11-08T06:22:51.856Z,1002.31
2022-11-08T06:23:51.826Z,1002.32
2022-11-08T06:24:51.848Z,1002.33
2022-11-08T06:25:51.799Z,1002.32
2022-11-08T06:26:51.809Z,1002.31
2022-11-08T06:27:51.785Z,1002.29
2022-11-08T06:28:51.796Z,1002.26
2022-11-08T06:29:51.753Z,1002.22
2022-11-08T06:30:51.794Z,1002.17
2022-11-08T06:31:51.736Z,1002.14
2022-11-08T06:32:51.741Z,1002.18
2022-11-08T06:33:51.720Z,1002.22
2022-11-08T06:34:51.715Z,1002.19
2022-11-08T06:35:51.731Z,1002.18
2022-11-08T06:36:51.703Z,1002.18
2022-11-08T06:37:53.561Z,1002.13
2022-11-08T06:38:51.672Z,1002.12
2022-11-08T06:39:51.647Z,1002.08
2022-11-08T06:40:51.686Z,1002.07
2022-11-08T06:41:51.639Z,1002.06
2022-11-08T06:42:51.644Z,1002.06
2022-11-08T06:43:51.605Z,1002.08
2022-11-08T06:44:51.627Z,1002.02
2022-11-08T06:45:51.589Z,1002.02
2022-11-08T06:46:51.628Z,1002.03
2022-11-08T06:47:51.566Z,1002.04
2022-11-08T06:48:51.592Z,1001.99
2022-11-08T06:49:51.543Z,1002.01
2022-11-08T06:50:51.543Z,1001.96
2022-11-08T06:51:51.552Z,1001.92
2022-11-08T06:52:51.527Z,1001.87
2022-11-08T06:53:51.513Z,1001.81
2022-11-08T06:54:51.520Z,1001.74
2022-11-08T06:55:51.485Z,1001.72
2022-11-08T06:56:51.506Z,1001.69
2022-11-08T06:57:51.482Z,1001.67
2022-11-08T06:58:51.480Z,1001.68
2022-11-08T06:59:51.444Z,1001.63
2022-11-08T07:00:51.441Z,1001.63
2022-11-08T07:01:51.572Z,1001.61
2022-11-08T07:02:51.670Z,1001.59
2022-11-08T07:03:51.404Z,1001.54
2022-11-08T07:04:51.425Z,1001.51
2022-11-08T07:05:51.377Z,1001.47
2022-11-08T07:06:51.377Z,1001.42
2022-11-08T07:07:51.375Z,1001.40
2022-11-08T07:08:51.367Z,1001.40
2022-11-08T07:09:51.336Z,1001.37
2022-11-08T07:10:51.336Z,1001.33
2022-11-08T07:11:51.324Z,1001.32
2022-11-08T07:12:51.335Z,1001.35
2022-11-08T07:13:51.286Z,1001.35
2022-11-08T07:14:51.297Z,1001.32
2022-11-08T07:15:51.274Z,1001.34
2022-11-08T07:16:51.273Z,1001.34
2022-11-08T07:17:51.289Z,1001.33
2022-11-08T07:18:51.397Z,1001.36
2022-11-08T07:19:51.236Z,1001.38
2022-11-08T07:20:51.231Z,1001.41
2022-11-08T07:21:51.221Z,1001.40
2022-11-08T07:22:51.212Z,1001.39
2022-11-08T07:23:51.206Z,1001.39
2022-11-08T07:24:51.193Z,1001.37
2022-11-08T07:25:51.164Z,1001.38
2022-11-08T07:26:51.167Z,1001.37
2022-11-08T07:27:51.140Z,1001.38
2022-11-08T07:28:51.165Z,1001.37
2022-11-08T07:29:51.117Z,1001.36
2022-11-08T07:30:51.117Z,1001.37
2022-11-08T07:31:51.103Z,1001.35
2022-11-08T07:32:51.098Z,1001.37
2022-11-08T07:33:51.079Z,1001.36
2022-11-08T07:34:51.128Z,1001.34
2022-11-08T07:35:51.067Z,1001.34
2022-11-08T07:36:51.569Z,1001.35
2022-11-08T07:37:51.031Z,1001.34
2022-11-08T07:38:51.066Z,1001.37
2022-11-08T07:39:51.042Z,1001.39
2022-11-08T07:40:51.012Z,1001.36
2022-11-08T07:41:51.008Z,1001.37
2022-11-08T07:43:11.269Z,1001.36
2022-11-08T07:43:50.983Z,1001.32
2022-11-08T07:44:51.017Z,1001.36
2022-11-08T07:45:50.951Z,1001.35
2022-11-08T07:46:50.967Z,1001.36
2022-11-08T07:47:50.924Z,1001.37
2022-11-08T07:48:50.936Z,1001.36
2022-11-08T07:49:50.929Z,1001.39
2022-11-08T07:50:50.934Z,1001.40
2022-11-08T07:51:50.888Z,1001.40
2022-11-08T07:52:50.888Z,1001.40
2022-11-08T07:53:50.870Z,1001.39
2022-11-08T07:54:50.889Z,1001.41
2022-11-08T07:55:50.874Z,1001.41
2022-11-08T07:56:50.841Z,1001.41
2022-11-08T07:57:50.831Z,1001.43
2022-11-08T07:58:50.823Z,1001.38
2022-11-08T07:59:50.810Z,1001.34
2022-11-08T08:00:50.816Z,1001.36
2022-11-08T08:01:50.832Z,1001.36
2022-11-08T08:02:50.838Z,1001.34
2022-11-08T08:03:50.752Z,1001.38
2022-11-08T08:04:50.760Z,1001.38
2022-11-08T08:05:50.730Z,1001.39
2022-11-08T08:06:50.790Z,1001.40
2022-11-08T08:07:50.710Z,1001.42
2022-11-08T08:08:50.719Z,1001.44
2022-11-08T08:09:50.696Z,1001.45
2022-11-08T08:10:50.702Z,1001.42
2022-11-08T08:11:50.671Z,1001.39
2022-11-08T08:12:50.708Z,1001.40
2022-11-08T08:13:50.659Z,1001.39
2022-11-08T08:14:50.649Z,1001.37
2022-11-08T08:15:50.622Z,1001.37
2022-11-08T08:16:50.648Z,1001.36
2022-11-08T08:17:50.605Z,1001.35
2022-11-08T08:18:55.957Z,1001.35
2022-11-08T08:19:50.611Z,1001.28
2022-11-08T08:20:50.618Z,1001.28
2022-11-08T08:21:50.562Z,1001.25
2022-11-08T08:22:50.565Z,1001.26
2022-11-08T08:23:50.582Z,1001.29
2022-11-08T08:24:50.542Z,1001.29
2022-11-08T08:25:50.517Z,1001.30
2022-11-08T08:26:50.518Z,1001.24
2022-11-08T08:27:50.504Z,1001.30
2022-11-08T08:28:50.504Z,1001.28
2022-11-08T08:29:50.494Z,1001.28
2022-11-08T08:30:50.490Z,1001.26
2022-11-08T08:31:50.451Z,1001.27
2022-11-08T08:33:08.357Z,1001.28
2022-11-08T08:33:50.435Z,1001.23
2022-11-08T08:34:50.470Z,1001.27
2022-11-08T08:35:50.409Z,1001.26
2022-11-08T08:36:50.410Z,1001.26
2022-11-08T08:37:50.386Z,1001.23
2022-11-08T08:38:50.397Z,1001.22
2022-11-08T08:39:50.368Z,1001.21
2022-11-08T08:40:50.397Z,1001.22
2022-11-08T08:41:50.348Z,1001.19
2022-11-08T08:42:50.347Z,1001.21
2022-11-08T08:43:50.323Z,1001.18
2022-11-08T08:44:50.331Z,1001.15
2022-11-08T08:45:50.341Z,1001.14
2022-11-08T08:46:50.303Z,1001.10
2022-11-08T08:47:50.280Z,1001.12
2022-11-08T08:48:50.281Z,1001.09
2022-11-08T08:49:50.265Z,1001.06
2022-11-08T08:50:50.259Z,1001.03
2022-11-08T08:51:50.257Z,1001.01
2022-11-08T08:52:50.239Z,1001.01
2022-11-08T08:53:50.221Z,1000.95
2022-11-08T08:54:50.262Z,1000.98
2022-11-08T08:55:50.204Z,1000.97
2022-11-08T08:56:50.215Z,1000.98
2022-11-08T08:57:50.326Z,1000.98
2022-11-08T09:01:39.378Z,1000.97
2022-11-08T09:01:44.234Z,1001.03
2022-11-08T09:02:44.223Z,1000.95
2022-11-08T09:03:44.231Z,1001.00
2022-11-08T09:04:44.185Z,1001.04
2022-11-08T09:05:44.260Z,1000.98
2022-11-08T09:06:44.261Z,1001.01
2022-11-08T09:07:44.176Z,1000.94
2022-11-08T09:08:44.150Z,1000.97
2022-11-08T09:09:44.154Z,1000.94
2022-11-08T09:10:44.131Z,1000.91
2022-11-08T09:11:44.134Z,1000.95
2022-11-08T09:12:44.119Z,1000.96
2022-11-08T09:13:44.200Z,1000.90
2022-11-08T09:14:44.084Z,1000.88
2022-11-08T09:15:44.091Z,1000.91
2022-11-08T09:16:44.067Z,1000.84
2022-11-08T09:17:44.261Z,1000.86
2022-11-08T09:18:44.056Z,1000.82
2022-11-08T09:19:44.032Z,1000.76
2022-11-08T09:20:44.031Z,1000.74
2022-11-08T09:21:44.060Z,1000.75
2022-11-08T09:22:44.003Z,1000.77
2022-11-08T09:23:44.017Z,1000.71
2022-11-08T09:24:43.965Z,1000.72
2022-11-08T09:25:43.970Z,1000.71
2022-11-08T09:26:43.946Z,1000.73
2022-11-08T09:27:43.956Z,1000.75
2022-11-08T09:28:44.089Z,1000.74
2022-11-08T09:29:43.936Z,1000.78
2022-11-08T09:30:43.911Z,1000.80
2022-11-08T09:31:43.923Z,1000.86
2022-11-08T09:33:00.225Z,1000.88
2022-11-08T09:33:43.896Z,1000.80
2022-11-08T09:34:43.887Z,1000.88
2022-11-08T09:35:43.878Z,1000.82
2022-11-08T09:36:43.841Z,1000.84
2022-11-08T09:37:47.103Z,1000.89
2022-11-08T09:38:43.822Z,1000.84
2022-11-08T09:39:43.886Z,1000.97
2022-11-08T09:40:43.796Z,1000.90
2022-11-08T09:41:43.923Z,1000.92
2022-11-08T09:42:43.774Z,1000.95
2022-11-08T09:43:43.825Z,1000.93
2022-11-08T09:44:43.750Z,1000.95
2022-11-08T09:45:43.777Z,1000.88
2022-11-08T09:46:43.731Z,1000.92
2022-11-08T09:47:44.324Z,1000.95
2022-11-08T09:48:43.725Z,1001.01
2022-11-08T09:49:43.711Z,1000.96
2022-11-08T09:50:43.722Z,1000.96
2022-11-08T09:51:43.774Z,1000.94
2022-11-08T09:52:43.702Z,1000.88
2022-11-08T09:53:43.678Z,1000.95
2022-11-08T09:54:43.644Z,1001.02
2022-11-08T09:55:43.660Z,1000.97
2022-11-08T09:56:43.641Z,1000.97
2022-11-08T09:57:43.626Z,1001.00
2022-11-08T09:58:43.603Z,1000.97
2022-11-08T09:59:43.606Z,1001.00
2022-11-08T10:00:43.577Z,1001.00
2022-11-08T10:01:43.658Z,1000.98
2022-11-08T10:02:43.581Z,1001.02
2022-11-08T10:03:43.563Z,1000.99
2022-11-08T10:04:43.538Z,1000.96
2022-11-08T10:05:43.553Z,1001.00
2022-11-08T10:06:43.535Z,1001.00
2022-11-08T10:07:43.545Z,1001.07
2022-11-08T10:08:43.495Z,1001.01
2022-11-08T10:09:43.500Z,1001.01
2022-11-08T10:10:43.532Z,1001.00
2022-11-08T10:11:43.498Z,1001.02
2022-11-08T10:12:43.824Z,1001.05
2022-11-08T10:13:43.481Z,1001.02
2022-11-08T10:14:52.311Z,1001.10
2022-11-08T10:15:43.436Z,1001.01
2022-11-08T10:16:43.412Z,1001.05
2022-11-08T10:17:43.410Z,1001.06
2022-11-08T10:18:43.404Z,1001.03
2022-11-08T10:19:43.388Z,1001.06
2022-11-08T10:20:43.367Z,1001.07
2022-11-08T10:21:43.382Z,1001.03
2022-11-08T10:22:43.340Z,1001.02
2022-11-08T10:23:43.383Z,1001.02
2022-11-08T10:24:43.321Z,1000.94
2022-11-08T10:25:43.327Z,1000.98
2022-11-08T10:26:43.318Z,1000.98
2022-11-08T10:27:43.308Z,1000.97
2022-11-08T10:28:43.292Z,1000.96
2022-11-08T10:29:43.319Z,1000.89
2022-11-08T10:30:43.256Z,1000.86
2022-11-08T10:31:43.253Z,1000.87
2022-11-08T10:32:43.231Z,1000.80
2022-11-08T10:33:43.279Z,1000.76
2022-11-08T10:34:43.300Z,1000.75
2022-11-08T10:35:43.199Z,1000.65
2022-11-08T10:36:43.211Z,1000.71
2022-11-08T10:37:43.204Z,1000.67
2022-11-08T10:38:43.184Z,1000.66
2022-11-08T10:39:43.210Z,1000.64
2022-11-08T10:40:43.204Z,1000.65
2022-11-08T10:41:43.141Z,1000.67
2022-11-08T10:42:43.149Z,1000.66
2022-11-08T10:43:43.141Z,1000.69
2022-11-08T10:44:43.113Z,1000.62
2022-11-08T10:45:43.126Z,1000.63
2022-11-08T10:46:43.094Z,1000.62
2022-11-08T10:47:43.078Z,1000.60
2022-11-08T10:48:43.069Z,1000.60
2022-11-08T10:49:43.062Z,1000.55
2022-11-08T10:50:43.049Z,1000.62
2022-11-08T10:51:43.048Z,1000.58
2022-11-08T10:52:43.048Z,1000.61
2022-11-08T10:53:43.006Z,1000.60
2022-11-08T10:54:43.006Z,1000.62
2022-11-08T10:55:42.995Z,1000.60
2022-11-08T10:56:43.017Z,1000.63
2022-11-08T10:57:42.962Z,1000.57
2022-11-08T10:58:42.970Z,1000.55
2022-11-08T10:59:42.939Z,1000.57
2022-11-08T11:00:42.956Z,1000.55
2022-11-08T11:01:45.804Z,1000.56
2022-11-08T11:02:42.946Z,1000.56
2022-11-08T11:03:42.903Z,1000.48
2022-11-08T11:04:42.938Z,1000.58
2022-11-08T11:05:42.879Z,1000.50
2022-11-08T11:06:42.936Z,1000.50
2022-11-08T11:07:42.878Z,1000.49
2022-11-08T11:08:42.876Z,1000.48
2022-11-08T11:09:42.831Z,1000.45
2022-11-08T11:10:42.836Z,1000.45
2022-11-08T11:11:42.825Z,1000.40
2022-11-08T11:12:42.815Z,1000.37
2022-11-08T11:13:42.812Z,1000.42
2022-11-08T11:14:42.827Z,1000.35
2022-11-08T11:15:42.770Z,1000.38
2022-11-08T11:16:42.774Z,1000.30
2022-11-08T11:17:42.763Z,1000.23
2022-11-08T11:18:42.783Z,1000.21
2022-11-08T11:19:42.746Z,1000.26
2022-11-08T11:20:42.733Z,1000.22
2022-11-08T11:21:42.713Z,1000.15
2022-11-08T11:22:42.718Z,1000.22
2022-11-08T11:23:42.684Z,1000.19
2022-11-08T11:24:42.778Z,1000.21
2022-11-08T11:25:42.663Z,1000.16
2022-11-08T11:26:42.682Z,1000.17
2022-11-08T11:27:42.639Z,1000.17
2022-11-08T11:28:42.671Z,1000.14
2022-11-08T11:29:42.667Z,1000.14
2022-11-08T11:30:42.622Z,1000.15
2022-11-08T11:31:42.607Z,1000.10
2022-11-08T11:32:42.600Z,1000.16
2022-11-08T11:33:42.576Z,1000.11
2022-11-08T11:34:42.580Z,1000.11
2022-11-08T11:35:42.583Z,1000.14
2022-11-08T11:36:42.560Z,1000.15
2022-11-08T11:37:42.550Z,1000.12
2022-11-08T11:38:42.540Z,1000.11
2022-11-08T11:39:42.513Z,1000.23
2022-11-08T11:40:42.543Z,1000.17
2022-11-08T11:41:42.549Z,1000.16
2022-11-08T11:42:46.913Z,1000.11
2022-11-08T11:43:42.519Z,1000.18
2022-11-08T11:44:42.471Z,1000.24
2022-11-08T11:45:42.462Z,1000.18
2022-11-08T11:46:42.473Z,1000.20
2022-11-08T11:47:42.442Z,1000.19
2022-11-08T11:48:42.427Z,1000.17
2022-11-08T11:49:42.405Z,1000.15
2022-11-08T11:50:42.423Z,1000.26
2022-11-08T11:51:42.460Z,1000.21
2022-11-08T11:52:42.384Z,1000.22
2022-11-08T11:53:47.415Z,1000.23
2022-11-08T11:54:42.374Z,1000.24
2022-11-08T11:55:42.341Z,1000.21
2022-11-08T11:56:42.342Z,1000.21
2022-11-08T11:57:42.361Z,1000.18
2022-11-08T11:58:42.322Z,1000.16
2022-11-08T11:59:42.315Z,1000.21
2022-11-08T12:00:42.339Z,1000.14
2022-11-08T12:01:42.341Z,1000.07
2022-11-08T12:02:42.323Z,1000.03
2022-11-08T12:03:42.269Z,1000.01
2022-11-08T12:04:42.260Z,999.99
2022-11-08T12:05:42.236Z,1000.03
2022-11-08T12:06:42.256Z,1000.05
2022-11-08T12:07:42.207Z,1000.06